Time;durP1;ratioP1;P1;durP2;ratioP2;P2;SDS_P1;SDS_P2;PMS_P1;PMS_P2;Temp;Humidity;BMP_temperature;BMP_pressure;BME280_temperature;BME280_humidity;BME280_pressure;Samples;Min_cycle;Max_cycle;Signal;HPM_P1;HPM_P2
2023/03/16 00:00:21;;;;;;;7.53;3.08;;;6.10;72.20;;;5.45;54.92;100899.28;5030955;28;20045;-77
2023/03/16 00:02:48;;;;;;;8.93;3.35;;;6.10;72.20;;;5.45;55.39;100895.81;5036403;28;20112;-77
2023/03/16 00:05:15;;;;;;;8.38;3.13;;;6.10;72.30;;;5.45;55.22;100896.63;5029865;28;20047;-77
2023/03/16 00:07:43;;;;;;;7.00;2.90;;;6.10;72.20;;;5.46;55.34;100889.50;5022679;28;20060;-77
2023/03/16 00:10:13;;;;;;;9.98;3.22;;;6.10;72.10;;;5.46;55.41;100890.34;5023781;28;20514;-77
2023/03/16 00:12:42;;;;;;;6.68;2.97;;;6.10;72.10;;;5.48;55.23;100892.84;5018263;28;20041;-77
2023/03/16 00:15:10;;;;;;;6.78;2.80;;;6.10;72.10;;;5.47;55.00;100886.72;5013456;28;20037;-77
2023/03/16 00:17:37;;;;;;;6.57;3.10;;;6.10;72.10;;;5.46;55.10;100879.75;5022372;28;20049;-78
2023/03/16 00:20:06;;;;;;;9.93;3.38;;;6.10;71.90;;;5.47;54.32;100872.69;5027068;28;20073;-77
2023/03/16 00:22:34;;;;;;;6.68;3.03;;;6.10;71.70;;;5.46;54.80;100882.41;5037467;28;20064;-77
2023/03/16 00:25:01;;;;;;;8.35;3.00;;;6.10;71.70;;;5.46;55.05;100887.69;5031420;28;20052;-77
2023/03/16 00:27:30;;;;;;;6.28;2.65;;;6.10;71.90;;;5.47;55.08;100881.44;5017377;28;20081;-77
2023/03/16 00:29:57;;;;;;;8.02;3.20;;;6.00;71.70;;;5.47;54.93;100886.72;5022157;28;20049;-77
2023/03/16 00:32:27;;;;;;;8.93;3.17;;;6.10;71.90;;;5.49;55.10;100876.78;5033619;28;20076;-77
2023/03/16 00:34:55;;;;;;;8.57;2.97;;;6.10;71.90;;;5.51;55.09;100873.97;5028184;28;20056;-77
2023/03/16 00:37:24;;;;;;;6.32;2.60;;;6.10;72.20;;;5.52;54.76;100870.34;5030873;28;20052;-77
2023/03/16 00:40:06;;;;;;;11.90;3.60;;;6.20;71.80;;;5.52;55.08;100881.75;5036131;28;20544;-77
2023/03/16 00:42:35;;;;;;;10.52;3.15;;;6.20;71.90;;;5.52;55.04;100879.09;5043468;28;20080;-77
2023/03/16 00:45:04;;;;;;;8.23;2.63;;;6.20;71.90;;;5.53;54.59;100872.00;5035744;28;20049;-77
2023/03/16 00:47:34;;;;;;;6.97;2.88;;;6.20;71.70;;;5.53;54.45;100872.81;5023555;28;20045;-77
2023/03/16 00:50:02;;;;;;;7.88;2.88;;;6.20;71.70;;;5.54;54.77;100874.47;5026601;28;20410;-77
2023/03/16 00:52:29;;;;;;;9.52;2.80;;;6.20;71.70;;;5.54;54.63;100871.00;5040845;28;20576;-77
2023/03/16 00:54:59;;;;;;;8.63;3.25;;;6.20;71.90;;;5.55;54.96;100862.88;5024087;28;20399;-77
2023/03/16 00:57:28;;;;;;;5.68;2.88;;;6.20;71.80;;;5.57;54.78;100863.56;5026684;28;20579;-77
2023/03/16 00:59:58;;;;;;;8.40;3.05;;;6.20;71.80;;;5.56;54.43;100861.06;5023564;28;20175;-77
2023/03/16 01:02:26;;;;;;;5.97;3.10;;;6.20;71.50;;;5.59;54.88;100868.66;5027378;28;20110;-77
2023/03/16 01:04:54;;;;;;;8.73;3.10;;;6.20;71.70;;;5.62;55.31;100882.38;5016822;28;20087;-77
2023/03/16 01:07:22;;;;;;;8.57;3.15;;;6.30;72.10;;;5.63;54.74;100881.38;5021816;28;20060;-78
2023/03/16 01:09:49;;;;;;;6.78;3.20;;;6.30;71.70;;;5.66;54.62;100883.72;5033968;28;20049;-77
2023/03/16 01:12:18;;;;;;;7.63;3.30;;;6.30;71.50;;;5.69;54.28;100877.25;5024796;28;20068;-77
2023/03/16 01:14:47;;;;;;;7.85;3.22;;;6.30;71.30;;;5.71;54.37;100871.75;5032789;28;20037;-77
2023/03/16 01:17:17;;;;;;;9.77;3.10;;;6.30;71.40;;;5.73;54.56;100864.50;5036108;28;20048;-77
2023/03/16 01:19:45;;;;;;;10.48;3.33;;;6.30;71.30;;;5.72;54.65;100847.81;5028559;28;20059;-77
2023/03/16 01:22:13;;;;;;;7.70;3.22;;;6.30;71.50;;;5.73;54.89;100853.91;5020695;28;20045;-78
2023/03/16 01:24:43;;;;;;;10.93;3.25;;;6.40;71.70;;;5.74;54.39;100850.28;5033078;28;20037;-77
2023/03/16 01:27:11;;;;;;;6.67;2.97;;;6.40;71.40;;;5.75;54.77;100843.97;5035889;28;20115;-77
2023/03/16 01:29:42;;;;;;;6.55;3.25;;;6.40;71.50;;;5.77;54.72;100842.00;5030952;28;20045;-77
2023/03/16 01:32:10;;;;;;;6.72;3.08;;;6.40;71.70;;;5.78;54.78;100830.41;5017844;28;20043;-77
2023/03/16 01:34:40;;;;;;;8.13;3.10;;;6.40;71.50;;;5.79;54.56;100834.72;5023361;28;20049;-78
2023/03/16 01:37:08;;;;;;;8.00;3.40;;;6.40;71.50;;;5.79;54.32;100832.06;5034831;28;20050;-77
2023/03/16 01:39:43;;;;;;;8.05;3.05;;;6.40;71.30;;;5.78;54.57;100823.28;5015163;28;20049;-78
2023/03/16 01:42:12;;;;;;;8.35;3.38;;;6.40;71.30;;;5.79;54.68;100827.59;5016452;28;20457;-77
2023/03/16 01:44:55;;;;;;;8.10;2.92;;;6.40;71.30;;;5.77;53.78;100824.31;5021064;28;20099;-77
2023/03/16 01:47:24;;;;;;;7.53;3.00;;;6.40;70.50;;;5.76;54.22;100816.50;5028134;28;20140;-77
2023/03/16 01:49:56;;;;;;;5.05;2.60;;;6.40;70.90;;;5.77;53.66;100810.25;5039838;28;20051;-77
2023/03/16 01:52:32;;;;;;;8.57;3.00;;;6.40;70.40;;;5.76;53.88;100803.28;5047509;28;20034;-77
2023/03/16 01:55:03;;;;;;;6.65;2.80;;;6.40;70.70;;;5.76;54.10;100798.00;5026798;28;20048;-77
2023/03/16 01:57:35;;;;;;;;;;;6.50;71.10;;;5.76;54.09;100790.03;5042116;28;20052;-77
2023/03/16 02:00:09;;;;;;;7.57;2.65;;;6.40;70.70;;;5.76;53.42;100795.34;5026726;28;19932;-77
2023/03/16 02:02:44;;;;;;;6.50;2.40;;;6.40;69.80;;;5.76;53.65;100793.53;5036642;22;20468;-88
2023/03/16 02:05:24;;;;;;;8.32;2.70;;;6.40;70.40;;;5.75;54.14;100802.47;5008544;28;20405;-87
2023/03/16 02:07:57;;;;;;;7.13;2.67;;;6.40;70.80;;;5.77;53.99;100794.38;4980604;28;20046;-87
2023/03/16 02:10:27;;;;;;;6.00;2.60;;;6.50;70.70;;;5.78;53.93;100782.78;5007489;28;20161;-88
2023/03/16 02:12:56;;;;;;;6.03;2.80;;;6.40;70.90;;;5.78;54.23;100778.31;5022214;28;20046;-88
2023/03/16 02:15:24;;;;;;;7.90;2.47;;;6.40;70.80;;;5.78;54.29;100772.19;5017679;28;20053;-88
2023/03/16 02:17:52;;;;;;;7.57;2.88;;;6.40;70.70;;;5.77;54.20;100773.19;5012478;28;20128;-88
2023/03/16 02:20:36;;;;;;;4.35;2.35;;;6.40;70.70;;;5.77;54.32;100787.25;5022236;28;20055;-87
2023/03/16 02:23:06;;;;;;;9.05;2.65;;;6.40;70.60;;;5.76;53.82;100780.31;5018013;28;20045;-88
2023/03/16 02:25:47;;;;;;;7.07;2.55;;;6.50;70.70;;;5.79;54.21;100787.06;5017375;28;20053;-87
2023/03/16 02:28:25;;;;;;;5.72;2.65;;;6.50;70.90;;;5.79;54.11;100771.19;5012509;28;20053;-88
2023/03/16 02:30:54;;;;;;;7.00;2.53;;;6.50;70.70;;;5.80;53.15;100765.72;5018021;28;20119;-88
2023/03/16 02:33:22;;;;;;;7.25;3.45;;;6.50;70.10;;;5.79;53.86;100761.44;5024538;28;20044;-89
2023/03/16 02:35:50;;;;;;;6.07;2.38;;;6.50;70.50;;;5.80;53.86;100759.59;5018019;28;22185;-88
2023/03/16 02:38:18;;;;;;;6.35;2.50;;;6.50;70.70;;;5.79;54.02;100755.31;5033164;28;20077;-88
2023/03/16 02:40:59;;;;;;;6.10;2.40;;;6.50;70.80;;;5.80;54.37;100752.47;5022473;28;20107;-88
2023/03/16 02:43:33;;;;;;;6.80;2.35;;;6.50;70.80;;;5.81;54.16;100750.69;5006996;28;20073;-88
2023/03/16 02:46:26;;;;;;;6.00;2.50;;;6.50;70.70;;;5.80;53.54;100749.00;5017758;28;20675;-88
2023/03/16 02:49:03;;;;;;;4.90;2.60;;;6.50;70.30;;;5.80;54.04;100749.00;5020281;28;20072;-86
2023/03/16 02:51:31;;;;;;;6.57;2.47;;;6.50;70.50;;;5.81;54.15;100756.81;5018363;28;20111;-87
2023/03/16 02:53:58;;;;;;;6.72;2.55;;;6.50;70.90;;;5.81;53.58;100745.41;5009574;28;20042;-87
2023/03/16 02:56:27;;;;;;;7.82;2.60;;;6.50;70.10;;;5.80;53.76;100738.44;5012342;28;20037;-88
2023/03/16 02:58:56;;;;;;;5.50;2.25;;;6.50;70.30;;;5.82;53.75;100731.16;5034245;28;20037;-89
2023/03/16 03:01:25;;;;;;;5.07;2.30;;;6.50;70.40;;;5.82;54.13;100728.50;5023525;28;20084;-88
2023/03/16 03:03:52;;;;;;;5.07;2.55;;;6.50;70.90;;;5.84;54.41;100723.84;5028691;28;20548;-88
2023/03/16 03:06:19;;;;;;;8.65;2.70;;;6.50;70.80;;;5.83;53.80;100730.97;5024347;28;20067;-87
2023/03/16 03:08:47;;;;;;;6.50;2.33;;;6.60;70.60;;;5.85;54.43;100730.78;5017467;28;20049;-88
2023/03/16 03:11:14;;;;;;;5.75;2.72;;;6.50;70.90;;;5.86;54.04;100727.16;5016178;28;20592;-88
2023/03/16 03:13:43;;;;;;;4.60;2.42;;;6.50;70.60;;;5.87;54.53;100728.81;5028711;28;20585;-87
2023/03/16 03:16:14;;;;;;;6.35;2.80;;;6.50;70.90;;;5.88;54.12;100719.88;5027433;28;20053;-87
2023/03/16 03:18:43;;;;;;;6.75;2.45;;;6.60;70.90;;;5.88;54.33;100730.44;5026766;28;20530;-88
2023/03/16 03:21:10;;;;;;;5.22;2.38;;;6.50;70.80;;;5.88;53.99;100730.44;5033835;28;20474;-88
2023/03/16 03:23:37;;;;;;;4.80;2.60;;;6.60;70.70;;;5.89;54.08;100729.44;5015911;28;20040;-88
2023/03/16 03:26:06;;;;;;;4.85;2.50;;;6.60;70.50;;;5.89;53.97;100724.16;5018709;28;20045;-88
2023/03/16 03:28:34;;;;;;;6.43;2.70;;;6.60;70.80;;;5.88;53.59;100725.97;5012891;28;20037;-88
2023/03/16 03:31:01;;;;;;;5.85;2.55;;;6.60;70.10;;;5.86;53.47;100706.00;5019812;28;20124;-87
2023/03/16 03:33:29;;;;;;;7.40;2.67;;;6.60;70.30;;;5.87;53.62;100712.94;5015518;28;20045;-88
2023/03/16 03:36:00;;;;;;;6.97;2.80;;;6.70;70.50;;;5.87;54.02;100712.94;5020096;28;20065;-88
2023/03/16 03:38:32;;;;;;;6.32;2.65;;;6.60;70.30;;;5.86;53.64;100706.00;5020528;28;20051;-87
2023/03/16 03:41:00;;;;;;;6.93;2.78;;;6.60;70.30;;;5.85;53.21;100710.44;5010749;28;20536;-88
2023/03/16 03:43:30;;;;;;;5.68;2.85;;;6.60;69.80;;;5.84;53.99;100713.28;5022778;28;20501;-88
2023/03/16 03:45:58;;;;;;;8.73;2.95;;;6.60;70.40;;;5.85;53.90;100709.63;5024041;28;20046;-89
2023/03/16 03:48:26;;;;;;;7.15;2.60;;;6.60;70.70;;;5.85;53.91;100712.25;5006440;28;20056;-87
2023/03/16 03:50:54;;;;;;;6.32;2.75;;;6.60;70.70;;;5.86;54.49;100706.81;5012553;28;20497;-88
2023/03/16 03:53:41;;;;;;;8.38;2.50;;;6.60;71.10;;;5.88;54.30;100704.00;5034755;28;20845;-88
2023/03/16 03:56:17;;;;;;;8.30;3.30;;;6.60;70.90;;;5.89;54.03;100705.63;5018395;28;20049;-88
2023/03/16 03:58:45;;;;;;;5.10;2.35;;;6.60;70.50;;;5.91;54.55;100698.34;5022594;28;20037;-88
2023/03/16 04:01:15;;;;;;;6.30;2.90;;;6.60;71.00;;;5.91;54.74;100704.50;5023270;28;20136;-88
2023/03/16 04:03:42;;;;;;;5.45;2.42;;;6.60;71.30;;;5.90;54.84;100699.34;5021822;28;20680;-88
2023/03/16 04:06:10;;;;;;;6.15;3.00;;;6.60;71.30;;;5.91;54.97;100696.56;5017861;28;20052;-87
2023/03/16 04:08:37;;;;;;;6.05;2.47;;;6.60;71.30;;;5.90;53.82;100700.19;5030623;28;20050;-88
2023/03/16 04:11:10;;;;;;;6.30;3.00;;;6.60;70.30;;;5.88;54.34;100704.81;5023811;28;20106;-89
2023/03/16 04:13:37;;;;;;;5.43;2.60;;;6.60;70.80;;;5.88;54.29;100698.69;5034275;28;20144;-88
2023/03/16 04:16:06;;;;;;;5.95;2.60;;;6.60;70.80;;;5.88;54.22;100698.69;5013011;28;20045;-87
2023/03/16 04:18:40;;;;;;;7.32;2.90;;;6.60;70.50;;;5.89;54.42;100690.56;5018191;28;20711;-88
2023/03/16 04:21:16;;;;;;;5.47;2.65;;;6.60;71.10;;;5.89;53.94;100687.91;5019074;28;20519;-89
2023/03/16 04:23:44;;;;;;;8.02;2.90;;;6.60;70.70;;;5.91;54.51;100683.31;5006348;28;20045;-88
2023/03/16 04:26:13;;;;;;;7.32;2.55;;;6.60;70.70;;;5.91;53.94;100687.78;5006680;28;20057;-88
2023/03/16 04:28:43;;;;;;;7.05;2.80;;;6.60;70.80;;;5.89;53.73;100679.16;5017104;28;20076;-89
2023/03/16 04:31:14;;;;;;;5.10;2.75;;;6.60;70.30;;;5.86;53.55;100679.53;5035582;28;20049;-88
2023/03/16 04:33:44;;;;;;;6.80;2.60;;;6.60;70.00;;;5.87;54.06;100675.88;5022283;28;20099;-86
2023/03/16 04:36:12;;;;;;;6.43;2.90;;;6.60;70.70;;;5.87;54.43;100662.66;5021903;28;20072;-89
2023/03/16 04:38:40;;;;;;;5.45;2.60;;;6.60;70.50;;;5.86;53.09;100653.06;5022970;28;20037;-88
2023/03/16 04:41:10;;;;;;;6.13;3.10;;;6.60;69.40;;;5.86;53.94;100658.34;5010667;28;20045;-86
2023/03/16 04:43:45;;;;;;;5.93;2.60;;;6.60;70.50;;;5.89;54.42;100663.28;5012852;28;20448;-85
2023/03/16 04:46:19;;;;;;;7.07;3.22;;;6.60;70.80;;;5.90;54.17;100654.34;5021302;28;20041;-86
2023/03/16 04:48:46;;;;;;;5.60;2.72;;;6.60;70.90;;;5.90;54.10;100649.03;5020414;28;20040;-85
2023/03/16 04:51:13;;;;;;;6.00;3.05;;;6.60;70.70;;;5.90;53.72;100656.97;5025685;28;20053;-85
2023/03/16 04:53:47;;;;;;;6.55;2.95;;;6.60;70.40;;;5.89;54.20;100656.16;5021478;28;20040;-85
2023/03/16 04:56:29;;;;;;;11.85;3.55;;;6.60;71.00;;;5.91;54.51;100659.50;5005421;28;20390;-84
2023/03/16 04:59:02;;;;;;;6.22;2.85;;;6.60;70.90;;;5.91;54.64;100667.44;5008967;28;20049;-84
2023/03/16 05:01:36;;;;;;;6.22;3.40;;;6.60;71.00;;;5.94;54.81;100668.91;5017232;28;20053;-84
2023/03/16 05:04:04;;;;;;;6.13;3.03;;;6.60;71.10;;;5.91;53.67;100667.44;5014587;28;20037;-84
2023/03/16 05:06:34;;;;;;;9.40;3.60;;;6.60;69.90;;;5.91;54.33;100670.09;5021087;28;20093;-85
2023/03/16 05:09:04;;;;;;;7.20;3.33;;;6.60;71.10;;;5.92;54.51;100674.38;5015572;28;20041;-84
2023/03/16 05:11:35;;;;;;;11.13;3.70;;;6.60;71.30;;;5.91;54.55;100664.81;5007103;28;20045;-84
2023/03/16 05:14:06;;;;;;;8.65;3.30;;;6.60;70.90;;;5.93;54.81;100661.97;5012253;28;20505;-86
2023/03/16 05:16:39;;;;;;;7.85;3.53;;;6.60;71.20;;;5.95;54.27;100662.59;5016849;28;20092;-86
2023/03/16 05:19:06;;;;;;;6.60;3.58;;;6.60;70.50;;;5.91;54.49;100656.84;5017839;28;20083;-87
2023/03/16 05:21:37;;;;;;;6.10;3.30;;;6.60;71.10;;;5.90;53.76;100660.47;5012590;28;20042;-85
2023/03/16 05:24:08;;;;;;;8.68;3.60;;;6.60;70.50;;;5.90;54.73;100660.47;5013594;28;20053;-87
2023/03/16 05:26:35;;;;;;;11.13;3.50;;;6.60;71.30;;;5.91;55.25;100658.66;5004911;28;20464;-86
2023/03/16 05:29:06;;;;;;;7.45;4.05;;;6.60;71.70;;;5.94;55.32;100660.97;5034867;28;20131;-87
2023/03/16 05:31:34;;;;;;;6.95;4.20;;;6.60;71.50;;;5.93;55.39;100652.19;5017512;28;21669;-85
2023/03/16 05:34:05;;;;;;;8.88;3.90;;;6.70;71.80;;;5.95;55.00;100657.31;5007993;28;20040;-85
2023/03/16 05:36:34;;;;;;;7.80;3.95;;;6.70;71.70;;;5.97;55.38;100655.31;5010212;28;20437;-88
2023/03/16 05:39:07;;;;;;;8.65;4.10;;;6.70;71.70;;;5.98;54.67;100672.84;5016096;28;20049;-87
2023/03/16 05:41:41;;;;;;;9.13;4.53;;;6.70;71.30;;;5.97;54.29;100663.25;5009757;28;20095;-88
2023/03/16 05:44:24;;;;;;;7.47;3.92;;;6.70;70.90;;;5.98;54.66;100659.63;5018923;28;20034;-88
2023/03/16 05:47:13;;;;;;;8.70;4.40;;;6.70;71.50;;;6.00;54.70;100662.06;5010232;28;20065;-87
2023/03/16 05:49:44;;;;;;;;;;;6.70;71.40;;;5.99;53.44;100669.19;5014640;28;20049;-88
2023/03/16 05:52:24;;;;;;;12.18;4.45;;;6.70;69.80;;;5.96;54.62;100664.28;5026618;28;19931;-83
2023/03/16 05:54:51;;;;;;;8.82;4.50;;;6.70;71.50;;;5.98;54.13;100667.56;5031566;28;20124;-90
2023/03/16 05:57:18;;;;;;;9.80;4.90;;;6.70;70.40;;;5.98;54.93;100674.69;5005170;28;20751;-91
2023/03/16 05:59:50;;;;;;;11.00;4.60;;;6.70;71.50;;;6.00;55.05;100673.47;5019894;28;20046;-91
2023/03/16 06:02:17;;;;;;;9.10;4.35;;;6.70;71.70;;;5.98;54.57;100664.91;5020882;28;20049;-91
2023/03/16 06:04:45;;;;;;;9.98;4.22;;;6.70;71.10;;;5.96;55.06;100666.91;5032771;28;20068;-91
2023/03/16 06:07:12;;;;;;;11.32;4.75;;;6.70;71.70;;;5.97;55.07;100659.78;5025283;28;20159;-91
2023/03/16 06:09:40;;;;;;;9.65;4.30;;;6.70;71.90;;;6.00;54.88;100676.13;5028368;28;20501;-89
2023/03/16 06:12:16;;;;;;;10.48;4.47;;;6.70;71.70;;;6.00;54.94;100660.25;5020738;28;20049;-89
2023/03/16 06:14:43;;;;;;;7.07;4.30;;;6.70;71.50;;;6.00;54.75;100668.19;5013850;28;20065;-89
2023/03/16 06:17:13;;;;;;;10.35;4.57;;;6.70;71.00;;;6.01;55.19;100675.16;5019265;28;20045;-91
2023/03/16 06:19:42;;;;;;;9.23;4.53;;;6.70;71.70;;;6.02;54.48;100676.78;5020349;28;20098;-90
2023/03/16 06:22:10;;;;;;;9.30;3.97;;;6.80;71.20;;;6.03;54.56;100673.13;5018019;28;20406;-90
2023/03/16 06:24:38;;;;;;;7.20;4.18;;;6.80;71.30;;;6.05;54.73;100673.81;5018995;28;20048;-89
2023/03/16 06:27:05;;;;;;;7.32;3.65;;;6.80;71.40;;;6.03;54.37;100675.78;5039417;28;20067;-89
2023/03/16 06:29:42;;;;;;;7.25;3.95;;;6.80;70.70;;;6.04;53.69;100672.13;5027055;28;20065;-88
2023/03/16 06:32:11;;;;;;;11.57;4.43;;;6.80;70.10;;;6.03;54.28;100665.19;5019492;28;20132;-87
2023/03/16 06:34:40;;;;;;;8.65;4.28;;;6.80;70.50;;;6.07;54.73;100677.09;5013195;28;20091;-90
2023/03/16 06:37:08;;;;;;;8.63;4.07;;;6.80;71.20;;;6.10;54.62;100674.09;5035470;28;20486;-88
2023/03/16 06:39:35;;;;;;;8.57;4.03;;;6.80;71.20;;;6.09;54.37;100680.38;5008122;28;20048;-89
2023/03/16 06:42:04;;;;;;;8.13;4.15;;;6.80;70.80;;;6.13;55.19;100679.03;5020076;28;20128;-88
2023/03/16 06:44:33;;;;;;;11.45;4.35;;;6.80;71.70;;;6.13;54.85;100670.25;5026697;28;20041;-89
2023/03/16 06:47:09;;;;;;;9.38;3.63;;;6.80;71.50;;;6.17;54.96;100674.22;5041218;28;20127;-90
2023/03/16 06:49:38;;;;;;;7.22;4.18;;;6.90;71.50;;;6.13;54.46;100675.56;5021827;28;20257;-89
2023/03/16 06:52:14;;;;;;;7.00;3.53;;;6.90;71.00;;;6.11;53.83;100674.91;5016061;28;21213;-89
2023/03/16 06:54:42;;;;;;;11.30;3.63;;;6.80;70.10;;;6.09;52.91;100668.97;5018253;28;20462;-89
2023/03/16 06:57:10;;;;;;;8.05;3.83;;;6.80;68.90;;;6.08;53.95;100673.44;5037968;28;20111;-89
2023/03/16 06:59:37;;;;;;;8.02;3.90;;;6.80;69.90;;;6.10;53.37;100671.44;5014726;28;20103;-88
2023/03/16 07:02:05;;;;;;;8.40;4.10;;;6.80;69.70;;;6.13;54.00;100673.72;5017146;28;20115;-88
2023/03/16 07:04:33;;;;;;;8.80;3.70;;;6.90;70.10;;;6.14;54.44;100667.44;5013090;28;20045;-89
2023/03/16 07:07:02;;;;;;;11.57;4.03;;;6.90;70.70;;;6.19;53.92;100678.31;5026242;28;20033;-89
2023/03/16 07:09:30;;;;;;;6.90;3.42;;;6.90;70.10;;;6.20;53.88;100673.88;5022041;28;20421;-89
2023/03/16 07:11:57;;;;;;;8.02;3.75;;;6.90;69.60;;;6.25;53.93;100673.34;5021244;28;20073;-89
2023/03/16 07:14:25;;;;;;;8.18;3.92;;;6.90;70.10;;;6.24;53.09;100674.31;5027466;28;20469;-90
2023/03/16 07:16:54;;;;;;;7.07;3.40;;;7.00;69.20;;;6.26;53.67;100673.13;5019174;28;20073;-89
2023/03/16 07:19:23;;;;;;;7.15;3.60;;;7.00;69.70;;;6.29;53.09;100669.31;5013860;28;20045;-89
2023/03/16 07:21:51;;;;;;;9.50;3.78;;;7.00;69.40;;;6.33;53.52;100678.53;5023714;28;20068;-89
2023/03/16 07:24:22;;;;;;;9.85;3.58;;;7.10;69.70;;;6.33;52.36;100671.41;5019129;28;20053;-90
2023/03/16 07:26:51;;;;;;;7.82;4.00;;;7.10;68.10;;;6.37;53.03;100677.19;5030684;28;20423;-88
2023/03/16 07:29:26;;;;;;;6.45;3.70;;;7.10;68.90;;;6.39;52.87;100681.31;5026004;28;20048;-88
2023/03/16 07:31:54;;;;;;;7.80;3.70;;;7.20;68.90;;;6.37;52.69;100679.84;5012840;28;20048;-89
2023/03/16 07:34:25;;;;;;;7.50;3.28;;;7.20;68.50;;;6.39;52.40;100672.53;5027615;28;20044;-89
2023/03/16 07:36:57;;;;;;;8.32;3.67;;;7.20;68.30;;;6.40;52.03;100676.84;5012500;28;20102;-88
2023/03/16 07:39:28;;;;;;;6.65;3.58;;;7.20;67.90;;;6.43;52.17;100684.41;5020574;28;20060;-89
2023/03/16 07:42:01;;;;;;;10.90;3.80;;;7.30;68.10;;;6.47;52.55;100680.41;5011948;28;20052;-89
2023/03/16 07:44:40;;;;;;;7.78;3.65;;;7.30;68.30;;;6.50;52.15;100682.72;5012649;28;20052;-88
2023/03/16 07:47:09;;;;;;;8.02;3.40;;;7.30;68.20;;;6.46;51.88;100681.41;5028928;28;20053;-88
2023/03/16 07:49:38;;;;;;;7.80;3.55;;;7.30;67.70;;;6.52;52.47;100682.53;5013892;28;20053;-88
2023/03/16 07:52:05;;;;;;;8.52;3.70;;;7.30;68.30;;;6.54;52.79;100678.72;5034729;28;20536;-89
2023/03/16 07:54:40;;;;;;;7.55;4.03;;;7.40;68.60;;;6.58;52.65;100674.66;5003847;28;20069;-88
2023/03/16 07:57:08;;;;;;;6.80;3.67;;;7.40;68.30;;;6.56;51.44;100675.88;5004663;28;20137;-89
2023/03/16 07:59:40;;;;;;;7.68;3.60;;;7.40;66.60;;;6.57;51.54;100685.44;5028286;28;20509;-89
2023/03/16 08:04:47;;;;;;;7.35;3.65;;;7.40;68.50;;;6.67;52.70;100678.88;5017778;28;20053;-88
2023/03/16 08:07:16;;;;;;;8.35;4.35;;;7.50;68.50;;;6.68;52.49;100675.22;5021690;28;20052;-89
2023/03/16 08:10:06;;;;;;;6.53;3.83;;;7.40;68.10;;;6.72;53.01;100671.22;5009995;28;20046;-88
2023/03/16 08:12:41;;;;;;;7.95;3.72;;;7.50;68.80;;;6.77;52.49;100669.84;5011796;28;20128;-89
2023/03/16 08:15:10;;;;;;;8.48;4.10;;;7.60;68.40;;;6.79;52.76;100668.69;5036160;28;20069;-91
2023/03/16 08:17:40;;;;;;;8.82;3.60;;;7.60;68.50;;;6.81;52.95;100669.31;5033074;28;20050;-89
2023/03/16 08:20:13;;;;;;;7.00;3.58;;;7.60;68.40;;;6.80;52.06;100667.69;5033872;28;20088;-88
2023/03/16 08:22:45;;;;;;;6.20;3.70;;;7.60;67.60;;;6.84;52.74;100668.16;5027064;28;20044;-91
2023/03/16 08:25:18;;;;;;;9.13;3.97;;;7.60;68.10;;;6.83;52.92;100662.03;5032790;28;20049;-91
2023/03/16 08:27:54;;;;;;;8.57;4.00;;;7.70;68.50;;;6.87;52.62;100665.09;5027042;28;20045;-92
2023/03/16 08:30:21;;;;;;;148.00;18.45;;;7.60;68.00;;;6.88;52.73;100664.09;5024597;28;20072;-91
2023/03/16 08:32:57;;;;;;;27.95;6.53;;;7.60;68.10;;;6.92;53.41;100676.00;5029015;28;20045;-91
2023/03/16 08:35:26;;;;;;;13.63;5.10;;;7.70;68.90;;;6.94;53.41;100669.50;5026058;28;20045;-92
2023/03/16 08:37:53;;;;;;;6.93;3.88;;;7.70;69.30;;;6.93;52.08;100667.06;5021017;28;20049;-91
2023/03/16 08:40:24;;;;;;;10.75;4.25;;;7.70;67.70;;;6.90;53.18;100662.09;5023350;28;20124;-91
2023/03/16 08:42:51;;;;;;;6.45;3.70;;;7.60;69.00;;;6.91;51.75;100667.22;5018547;28;20042;-90
2023/03/16 08:45:20;;;;;;;8.02;3.92;;;7.70;67.30;;;6.90;52.82;100664.75;5024790;28;20137;-91
2023/03/16 08:47:49;;;;;;;8.70;4.38;;;7.70;68.50;;;6.90;52.89;100670.06;5019771;28;20037;-89
2023/03/16 08:50:18;;;;;;;7.55;4.40;;;7.70;68.90;;;6.89;51.95;100665.78;5038108;28;20060;-90
2023/03/16 08:52:45;;;;;;;20.92;5.10;;;7.70;67.60;;;6.87;51.97;100663.28;5020970;28;20046;-88
2023/03/16 08:55:14;;;;;;;31.27;5.90;;;7.70;67.40;;;6.89;53.21;100677.19;5027097;28;20038;-91
2023/03/16 08:57:44;;;;;;;34.72;6.95;;;7.70;69.00;;;6.88;53.02;100664.94;5025791;28;20140;-91
2023/03/16 09:00:13;;;;;;;20.48;5.10;;;7.70;68.60;;;6.91;53.52;100672.53;5019782;28;20137;-91
2023/03/16 09:02:41;;;;;;;9.13;4.00;;;7.70;69.30;;;6.93;53.26;100673.19;5013282;28;20041;-88
2023/03/16 09:05:10;;;;;;;10.63;4.13;;;7.70;69.00;;;6.97;53.37;100668.31;5016910;28;20042;-89
2023/03/16 09:07:38;;;;;;;8.32;4.47;;;7.70;68.90;;;6.97;53.66;100671.78;5014004;28;20065;-90
2023/03/16 09:10:07;;;;;;;10.57;5.32;;;7.80;69.30;;;6.98;53.01;100675.28;5023076;28;20761;-89
2023/03/16 09:12:36;;;;;;;8.27;4.65;;;7.70;69.00;;;6.99;53.67;100674.28;5022989;28;20052;-88
2023/03/16 09:15:07;;;;;;;9.70;6.18;;;7.70;69.50;;;7.00;52.01;100659.19;5027641;28;20045;-88
2023/03/16 09:17:36;;;;;;;7.65;4.35;;;7.70;67.30;;;6.96;52.66;100669.31;5024301;28;20041;-88
2023/03/16 09:20:08;;;;;;;9.15;4.20;;;7.70;68.70;;;6.95;52.62;100680.94;5028805;28;20053;-89
2023/03/16 09:22:35;;;;;;;9.13;4.47;;;7.70;68.30;;;6.96;52.52;100678.09;5026199;28;20413;-89
2023/03/16 09:25:04;;;;;;;10.00;4.63;;;7.70;68.50;;;6.97;53.27;100673.63;5025303;28;20388;-88
2023/03/16 09:27:31;;;;;;;7.80;4.25;;;7.90;69.10;;;7.00;53.18;100673.25;5019247;28;20068;-88
2023/03/16 09:29:59;;;;;;;8.85;5.13;;;7.80;68.80;;;7.00;53.25;100672.44;5028171;28;20041;-88
2023/03/16 09:32:29;;;;;;;10.13;4.60;;;7.80;68.90;;;7.03;53.59;100667.59;5032544;28;20056;-88
2023/03/16 09:34:56;;;;;;;7.97;4.32;;;7.80;69.50;;;7.08;53.07;100670.53;5030682;28;20045;-88
2023/03/16 09:37:23;;;;;;;7.97;4.53;;;7.90;68.90;;;7.14;53.69;100668.97;5032023;28;20045;-88
2023/03/16 09:39:51;;;;;;;7.68;4.57;;;7.90;69.40;;;7.19;53.44;100667.41;5027510;28;20076;-88
2023/03/16 09:42:27;;;;;;;6.32;4.40;;;8.00;69.10;;;7.23;54.69;100666.03;5025185;28;20037;-88
2023/03/16 09:45:14;;;;;;;7.22;4.60;;;8.00;70.60;;;7.28;53.88;100665.47;5028912;28;20052;-88
2023/03/16 09:47:46;;;;;;;10.25;4.65;;;8.10;69.50;;;7.32;53.53;100657.94;5021986;28;20509;-88
2023/03/16 09:50:21;;;;;;;9.50;4.55;;;8.10;69.30;;;7.34;53.61;100654.13;5030037;28;20072;-88
2023/03/16 09:52:57;;;;;;;9.45;4.18;;;8.20;69.30;;;7.39;54.21;100654.38;5031220;28;20478;-87
2023/03/16 09:55:30;;;;;;;20.38;5.30;;;8.20;70.00;;;7.38;53.32;100643.97;5031770;28;20049;-87
2023/03/16 09:57:59;;;;;;;15.27;4.72;;;8.20;68.90;;;7.40;54.02;100641.94;5028414;28;20482;-88
2023/03/16 10:00:31;;;;;;;20.13;6.63;;;8.20;69.70;;;7.46;53.93;100641.19;5027885;28;20132;-86
2023/03/16 10:03:26;;;;;;;13.00;5.05;;;8.30;69.70;;;7.50;54.00;100647.78;5027097;28;20736;-87
2023/03/16 10:06:00;;;;;;;9.18;4.85;;;8.30;69.70;;;7.54;54.00;100643.75;5024700;28;20107;-87
2023/03/16 10:08:37;;;;;;;11.95;5.28;;;8.40;69.70;;;7.58;54.16;100636.22;5029700;28;20152;-87
2023/03/16 10:11:27;;;;;;;8.18;5.00;;;8.40;69.90;;;7.62;53.93;100640.97;5030190;28;20075;-87
2023/03/16 10:14:01;;;;;;;8.43;4.47;;;8.40;69.60;;;7.65;54.33;100640.59;5040413;28;20115;-87
2023/03/16 10:16:37;;;;;;;9.13;4.68;;;8.50;70.00;;;7.71;54.11;100636.34;5022500;28;20491;-87
2023/03/16 10:19:17;;;;;;;10.38;4.97;;;8.50;69.70;;;7.74;54.15;100628.03;5028829;28;20046;-87
2023/03/16 10:21:44;;;;;;;9.00;4.68;;;8.60;69.70;;;7.75;54.16;100625.16;5028221;28;20049;-87
2023/03/16 10:24:27;;;;;;;13.05;5.10;;;8.60;69.50;;;7.77;53.75;100632.97;5023201;28;20045;-88
2023/03/16 10:26:59;;;;;;;8.68;5.00;;;8.70;69.40;;;7.81;53.75;100622.78;5029740;28;20095;-88
2023/03/16 10:29:29;;;;;;;9.00;5.00;;;8.70;69.50;;;7.85;54.06;100627.50;5043527;28;20049;-88
2023/03/16 10:32:02;;;;;;;7.80;4.55;;;8.70;69.70;;;7.87;53.44;100625.50;5023346;28;20073;-88
2023/03/16 10:34:31;;;;;;;7.75;4.82;;;8.70;69.10;;;7.88;53.56;100623.69;5030892;28;20049;-88
2023/03/16 10:37:02;;;;;;;10.45;4.82;;;8.70;68.90;;;7.87;54.32;100628.16;5028988;28;20136;-88
2023/03/16 10:39:41;;;;;;;11.05;5.20;;;8.80;69.70;;;7.93;53.93;100614.13;5029718;28;20053;-86
2023/03/16 10:42:16;;;;;;;8.98;4.10;;;8.80;69.50;;;7.94;53.88;100610.44;5029371;28;20390;-87